Stephen M. White — WCU6542 — position and weather

sailwx.info

Track history (hours):
 
Tides and Currents Weather Stations Pressure Air Temp Water Temp Dewpoint Dewpoint Depression Visibility Wind Speed Wind Dir Waves Ship Positions

Stephen M. White

Owner: LOS ANGELES, CITY OF, SAN PEDRO, CA. More information available from US FCC via Universal Licensing System and Coast Guard Vessel Documentation Center.

Last reported at 2015-Apr-01 08:22 UTC. Time now 2015-Apr-01 13:12 UTC.
Position N 33°43' W 118°16'.

Length 20 m.

Type: Pilot. MMSI: 367049470.

Date/timePositionNaut miles runAvg speedWind from/ knotsBaromVisibWave heightAir tempDewpointWater temp
2015-Apr-01 08:22N 33°43' W 118°16'6575.7
2015-Apr-01 07:30N 33°43' W 116°58'6569.0
2015-Apr-01 06:33N 33°43' W 118°16'0 0.0
2015-Apr-01 05:33N 33°43' W 118°16'0 0.0
2015-Apr-01 04:21N 33°43' W 118°16'0 0.0
2015-Apr-01 03:33N 33°43' W 118°16'0 0.0
2015-Apr-01 02:34N 33°43' W 118°16'0 0.0
2015-Apr-01 01:34N 33°43' W 118°16'0 0.0
2015-Apr-01 00:33N 33°43' W 118°16'2 2.3
2015-Mar-31 23:32N 33°41' W 118°15'2 2.4
2015-Mar-31 22:33N 33°43' W 118°16'2 2.2
2015-Mar-31 21:33N 33°42' W 118°14'2 2.1
2015-Mar-31 20:32N 33°43' W 118°16'0 0.0
2015-Mar-31 19:33N 33°43' W 118°16'0 0.0
2015-Mar-31 18:33N 33°43' W 118°16'0 0.0
2015-Mar-31 17:33N 33°43' W 118°16'0 0.0
2015-Mar-31 16:34N 33°43' W 118°16'0 0.0
2015-Mar-31 15:32N 33°43' W 118°16'0 0.0
2015-Mar-31 14:33N 33°43' W 118°16'1 1.2
2015-Mar-31 13:33N 33°43' W 118°15'1 1.2
2015-Mar-31 12:33N 33°43' W 118°16'3 3.1
2015-Mar-31 11:33N 33°41' W 118°14'3 3.1
2015-Mar-31 10:33N 33°43' W 118°16'0 0.0
2015-Mar-31 09:33N 33°43' W 118°16'0 0.0
2015-Mar-31 08:33N 33°43' W 118°16'0 0.0
2015-Mar-31 07:33N 33°43' W 118°16'0 0.0
2015-Mar-31 06:33N 33°43' W 118°16'0 0.0
2015-Mar-31 05:33N 33°43' W 118°16'0 0.0
2015-Mar-31 04:33N 33°43' W 118°16'0 0.0
2015-Mar-31 03:34N 33°43' W 118°16'0 0.0
2015-Mar-31 02:33N 33°43' W 118°16'0 0.0
2015-Mar-31 01:33N 33°43' W 118°16'0 0.0
2015-Mar-31 00:34N 33°43' W 118°16'0 0.0
2015-Mar-30 23:33N 33°43' W 118°16'0 0.0
2015-Mar-30 22:33N 33°43' W 118°16'0 0.3
2015-Mar-30 21:33N 33°43' W 118°16'0 0.3
2015-Mar-30 20:33N 33°43' W 118°16'1 1.4
2015-Mar-30 19:33N 33°42' W 118°15'1 1.4
2015-Mar-30 18:34N 33°43' W 118°16'0 0.0
2015-Mar-30 17:34N 33°43' W 118°16'0 0.0
2015-Mar-30 16:32N 33°43' W 118°16'0 0.0
2015-Mar-30 15:33N 33°43' W 118°16'0 0.0
2015-Mar-30 14:33N 33°43' W 118°16'0 0.0
2015-Mar-30 13:34N 33°43' W 118°16'0 0.0
2015-Mar-30 12:30N 33°43' W 118°16'0 0.0
2015-Mar-30 11:33N 33°43' W 118°16'0 0.0
2015-Mar-30 10:33N 33°43' W 118°16'0 0.0
2015-Mar-30 09:33N 33°43' W 118°16'0 0.0
2015-Mar-30 08:33N 33°43' W 118°16'0 0.0
2015-Mar-30 07:33N 33°43' W 118°16'0 0.0
2015-Mar-30 06:33N 33°43' W 118°16'0 0.0
2015-Mar-30 05:33N 33°43' W 118°16'0 0.0
2015-Mar-30 04:33N 33°43' W 118°16'0 0.0
2015-Mar-30 03:33N 33°43' W 118°16'0 0.0
2015-Mar-30 02:33N 33°43' W 118°16'1 1.0
2015-Mar-30 01:33N 33°43' W 118°15'1 1.0
2015-Mar-30 00:33N 33°43' W 118°16'0 0.0
2015-Mar-29 23:33N 33°43' W 118°16'0 0.0
2015-Mar-29 22:33N 33°43' W 118°16'0 0.0
2015-Mar-29 21:33N 33°43' W 118°16'0 0.0
2015-Mar-29 20:33N 33°43' W 118°16'0 0.2
2015-Mar-29 19:33N 33°43' W 118°16'0 0.2
2015-Mar-29 18:33N 33°43' W 118°16'0 0.0
2015-Mar-29 17:33N 33°43' W 118°16'0 0.0
2015-Mar-29 16:33N 33°43' W 118°16'0 0.0
2015-Mar-29 15:33N 33°43' W 118°16'0 0.0
2015-Mar-29 14:33N 33°43' W 118°16'0 0.0
2015-Mar-29 13:33N 33°43' W 118°16'0 0.0
2015-Mar-29 12:33N 33°43' W 118°16'0 0.0
2015-Mar-29 11:20N 33°43' W 118°16'0 0.0
2015-Mar-29 10:33N 33°43' W 118°16'0 0.0
2015-Mar-29 09:33N 33°43' W 118°16'1 0.5
2015-Mar-29 08:34N 33°43' W 118°16'1 0.5
2015-Mar-29 07:34N 33°43' W 118°16'1 0.6
2015-Mar-29 06:34N 33°44' W 118°16'1 0.6
2015-Mar-29 05:33N 33°43' W 118°16'0 0.0
2015-Mar-29 04:33N 33°43' W 118°16'0 0.0
2015-Mar-29 03:33N 33°43' W 118°16'0 0.0
2015-Mar-29 02:33N 33°43' W 118°16'0 0.0
2015-Mar-29 01:33N 33°43' W 118°16'0 0.0
2015-Mar-29 00:33N 33°43' W 118°16'0 0.0
2015-Mar-28 23:33N 33°43' W 118°16'0 0.0
2015-Mar-28 22:33N 33°43' W 118°16'0 0.0
2015-Mar-28 21:33N 33°43' W 118°16'0 0.0
2015-Mar-28 20:33N 33°43' W 118°16'0 0.0
2015-Mar-28 19:33N 33°43' W 118°16'0 0.0
2015-Mar-28 18:33N 33°43' W 118°16'0 0.0
2015-Mar-28 17:32N 33°43' W 118°16'0 0.0
2015-Mar-28 16:32N 33°43' W 118°16'0 0.0
2015-Mar-28 15:33N 33°43' W 118°16'0 0.5
2015-Mar-28 14:33N 33°43' W 118°16'1 0.9
2015-Mar-28 13:33N 33°42' W 118°15'1 1.4
2015-Mar-28 12:33N 33°43' W 118°16'1 0.9
2015-Mar-28 11:33N 33°43' W 118°15'1 0.9
2015-Mar-28 10:33N 33°43' W 118°16'0 0.0
2015-Mar-28 09:33N 33°43' W 118°16'0 0.0
2015-Mar-28 08:33N 33°43' W 118°16'0 0.0
2015-Mar-28 07:33N 33°43' W 118°16'0 0.0
2015-Mar-28 06:33N 33°43' W 118°16'0 0.0
2015-Mar-28 05:34N 33°43' W 118°16'0 0.0
2015-Mar-28 04:34N 33°43' W 118°16'0 0.0
2015-Mar-28 03:34N 33°43' W 118°16'0 0.0
2015-Mar-28 02:33N 33°43' W 118°16'0 0.0
2015-Mar-28 01:33N 33°43' W 118°16'0 0.0
2015-Mar-28 00:33N 33°43' W 118°16'0 0.0
2015-Mar-27 23:33N 33°43' W 118°16'0 0.0
2015-Mar-27 22:33N 33°43' W 118°16'1 0.5
2015-Mar-27 21:33N 33°44' W 118°17'1 0.5
2015-Mar-27 20:33N 33°43' W 118°16'0 0.0
2015-Mar-27 19:33N 33°43' W 118°16'0 0.0
2015-Mar-27 18:33N 33°43' W 118°16'0 0.0
2015-Mar-27 17:33N 33°43' W 118°16'0 0.0
2015-Mar-27 16:33N 33°43' W 118°16'0 0.0
2015-Mar-27 15:33N 33°43' W 118°16'0 0.0
2015-Mar-27 14:33N 33°43' W 118°16'3 2.8
2015-Mar-27 13:27N 33°41' W 118°14'3 3.5
2015-Mar-27 12:34N 33°43' W 118°16'0 0.0
2015-Mar-27 11:33N 33°43' W 118°16'0 0.0
2015-Mar-27 10:33N 33°43' W 118°16'0 0.0
2015-Mar-27 09:33N 33°43' W 118°16'0 0.0
2015-Mar-27 08:33N 33°43' W 118°16'0 0.0
2015-Mar-27 07:33N 33°43' W 118°16'0 0.0
2015-Mar-27 06:12N 33°43' W 118°16'1 1.6
2015-Mar-27 05:33N 33°43' W 118°15'1 1.0
2015-Mar-27 04:33N 33°43' W 118°16'0 0.0
2015-Mar-27 03:33N 33°43' W 118°16'0 0.0
2015-Mar-27 02:33N 33°43' W 118°16'0 0.1
2015-Mar-27 01:33N 33°43' W 118°16'0 0.1
2015-Mar-27 00:33N 33°43' W 118°16'0 0.0
2015-Mar-26 23:33N 33°43' W 118°16'0 0.0
2015-Mar-26 21:30N 33°43' W 118°16'0 0.0
2015-Mar-26 20:33N 33°43' W 118°16'0 0.0
2015-Mar-26 19:33N 33°43' W 118°16'0 0.0
2015-Mar-26 18:34N 33°43' W 118°16'0 0.0
2015-Mar-26 17:34N 33°43' W 118°16'0 0.0
2015-Mar-26 16:34N 33°43' W 118°16'1 1.1
2015-Mar-26 15:33N 33°43' W 118°15'1 1.1
2015-Mar-26 14:33N 33°43' W 118°16'0 0.2
2015-Mar-26 13:33N 33°43' W 118°16'0 0.2
2015-Mar-26 12:33N 33°43' W 118°16'0 0.0
2015-Mar-26 11:33N 33°43' W 118°16'0 0.0
2015-Mar-26 10:33N 33°43' W 118°16'0 0.0
2015-Mar-26 09:33N 33°43' W 118°16'0 0.0
2015-Mar-26 08:33N 33°43' W 118°16'0 0.0
2015-Mar-26 07:33N 33°43' W 118°16'0 0.0
2015-Mar-26 06:33N 33°43' W 118°16'0 0.0
2015-Mar-26 05:33N 33°43' W 118°16'0 0.0
2015-Mar-26 04:33N 33°43' W 118°16'0 0.0
2015-Mar-26 03:27N 33°43' W 118°16'0 0.0
2015-Mar-26 02:33N 33°43' W 118°16'0 0.0
2015-Mar-26 01:33N 33°43' W 118°16'0 0.0
2015-Mar-26 00:32N 33°43' W 118°16'0 0.0
2015-Mar-25 23:33N 33°43' W 118°16'0 0.0
2015-Mar-25 22:33N 33°43' W 118°16'0 0.0
2015-Mar-25 21:33N 33°43' W 118°16'0 0.0
2015-Mar-25 20:33N 33°43' W 118°16'0 0.0
2015-Mar-25 19:33N 33°43' W 118°16'0 0.0
2015-Mar-25 18:25N 33°43' W 118°16'0 0.0
2015-Mar-25 17:33N 33°43' W 118°16'0 0.0
2015-Mar-25 16:33N 33°43' W 118°16'0 0.0
2015-Mar-25 15:33N 33°43' W 118°16'0 0.0
2015-Mar-25 14:33N 33°43' W 118°16'0 0.0
2015-Mar-25 13:33N 33°43' W 118°16'0 0.0
2015-Mar-25 12:33N 33°43' W 118°16'0 0.0
2015-Mar-25 11:33N 33°43' W 118°16'0 0.0
2015-Mar-25 10:33N 33°43' W 118°16'0 0.0
2015-Mar-25 09:33N 33°43' W 118°16'0 0.0
2015-Mar-25 08:33N 33°43' W 118°16'0 0.0
2015-Mar-25 07:33N 33°43' W 118°16'0 0.0
2015-Mar-25 06:33N 33°43' W 118°16'0 0.0
2015-Mar-25 05:33N 33°43' W 118°16'0 0.0
2015-Mar-25 04:33N 33°43' W 118°16'0 0.0
2015-Mar-25 03:33N 33°43' W 118°16'0 0.0
2015-Mar-25 02:33N 33°43' W 118°16'0 0.0
2015-Mar-25 01:33N 33°43' W 118°16'0 0.0
2015-Mar-25 00:32N 33°43' W 118°16'0 0.0
2015-Mar-24 23:32N 33°43' W 118°16'0 0.0
2015-Mar-24 21:22N 33°43' W 118°16'0 0.0
2015-Mar-24 05:10N 33°43' W 118°16'0 0.0
2015-Mar-24 04:32N 33°43' W 118°16'0 0.0
2015-Mar-24 03:33N 33°43' W 118°16'0 0.0
2015-Mar-24 02:33N 33°43' W 118°16'0 0.0
2015-Mar-24 01:32N 33°43' W 118°16'0 0.0
2015-Mar-24 00:19N 33°43' W 118°16'0 0.0
2015-Mar-23 00:27N 33°43' W 118°16'0 0.0
2015-Mar-22 23:33N 33°43' W 118°16'0 0.0
2015-Mar-22 22:33N 33°43' W 118°16'0 0.0
2015-Mar-22 21:19N 33°43' W 118°16'0 0.0
2015-Mar-22 19:19N 33°43' W 118°16'0 0.0
2015-Mar-22 11:05N 33°43' W 118°16'  
Track history (hours):
 
Tides and Currents Weather Stations Pressure Air Temp Water Temp Dewpoint Dewpoint Depression Visibility Wind Speed Wind Dir Waves Ship Positions

Stephen M. White

Owner: LOS ANGELES, CITY OF, SAN PEDRO, CA. More information available from US FCC via Universal Licensing System and Coast Guard Vessel Documentation Center.

Last reported at 2015-Apr-01 08:22 UTC. Time now 2015-Apr-01 13:12 UTC.
Position N 33°43' W 118°16'.

Length 20 m.

Type: Pilot. MMSI: 367049470.

Date/timePositionNaut miles runAvg speedWind from/ knotsBaromVisibWave heightAir tempDewpointWater temp
2015-Apr-01 08:22N 33°43' W 118°16'6575.7
2015-Apr-01 07:30N 33°43' W 116°58'6569.0
2015-Apr-01 06:33N 33°43' W 118°16'0 0.0
2015-Apr-01 05:33N 33°43' W 118°16'0 0.0
2015-Apr-01 04:21N 33°43' W 118°16'0 0.0
2015-Apr-01 03:33N 33°43' W 118°16'0 0.0
2015-Apr-01 02:34N 33°43' W 118°16'0 0.0
2015-Apr-01 01:34N 33°43' W 118°16'0 0.0
2015-Apr-01 00:33N 33°43' W 118°16'2 2.3
2015-Mar-31 23:32N 33°41' W 118°15'2 2.4
2015-Mar-31 22:33N 33°43' W 118°16'2 2.2
2015-Mar-31 21:33N 33°42' W 118°14'2 2.1
2015-Mar-31 20:32N 33°43' W 118°16'0 0.0
2015-Mar-31 19:33N 33°43' W 118°16'0 0.0
2015-Mar-31 18:33N 33°43' W 118°16'0 0.0
2015-Mar-31 17:33N 33°43' W 118°16'0 0.0
2015-Mar-31 16:34N 33°43' W 118°16'0 0.0
2015-Mar-31 15:32N 33°43' W 118°16'0 0.0
2015-Mar-31 14:33N 33°43' W 118°16'1 1.2
2015-Mar-31 13:33N 33°43' W 118°15'1 1.2
2015-Mar-31 12:33N 33°43' W 118°16'3 3.1
2015-Mar-31 11:33N 33°41' W 118°14'3 3.1
2015-Mar-31 10:33N 33°43' W 118°16'0 0.0
2015-Mar-31 09:33N 33°43' W 118°16'0 0.0
2015-Mar-31 08:33N 33°43' W 118°16'0 0.0
2015-Mar-31 07:33N 33°43' W 118°16'0 0.0
2015-Mar-31 06:33N 33°43' W 118°16'0 0.0
2015-Mar-31 05:33N 33°43' W 118°16'0 0.0
2015-Mar-31 04:33N 33°43' W 118°16'0 0.0
2015-Mar-31 03:34N 33°43' W 118°16'0 0.0
2015-Mar-31 02:33N 33°43' W 118°16'0 0.0
2015-Mar-31 01:33N 33°43' W 118°16'0 0.0
2015-Mar-31 00:34N 33°43' W 118°16'0 0.0
2015-Mar-30 23:33N 33°43' W 118°16'0 0.0
2015-Mar-30 22:33N 33°43' W 118°16'0 0.3
2015-Mar-30 21:33N 33°43' W 118°16'0 0.3
2015-Mar-30 20:33N 33°43' W 118°16'1 1.4
2015-Mar-30 19:33N 33°42' W 118°15'1 1.4
2015-Mar-30 18:34N 33°43' W 118°16'0 0.0
2015-Mar-30 17:34N 33°43' W 118°16'0 0.0
2015-Mar-30 16:32N 33°43' W 118°16'0 0.0
2015-Mar-30 15:33N 33°43' W 118°16'0 0.0
2015-Mar-30 14:33N 33°43' W 118°16'0 0.0
2015-Mar-30 13:34N 33°43' W 118°16'0 0.0
2015-Mar-30 12:30N 33°43' W 118°16'0 0.0
2015-Mar-30 11:33N 33°43' W 118°16'0 0.0
2015-Mar-30 10:33N 33°43' W 118°16'0 0.0
2015-Mar-30 09:33N 33°43' W 118°16'0 0.0
2015-Mar-30 08:33N 33°43' W 118°16'0 0.0
2015-Mar-30 07:33N 33°43' W 118°16'0 0.0
2015-Mar-30 06:33N 33°43' W 118°16'0 0.0
2015-Mar-30 05:33N 33°43' W 118°16'0 0.0
2015-Mar-30 04:33N 33°43' W 118°16'0 0.0
2015-Mar-30 03:33N 33°43' W 118°16'0 0.0
2015-Mar-30 02:33N 33°43' W 118°16'1 1.0
2015-Mar-30 01:33N 33°43' W 118°15'1 1.0
2015-Mar-30 00:33N 33°43' W 118°16'0 0.0
2015-Mar-29 23:33N 33°43' W 118°16'0 0.0
2015-Mar-29 22:33N 33°43' W 118°16'0 0.0
2015-Mar-29 21:33N 33°43' W 118°16'0 0.0
2015-Mar-29 20:33N 33°43' W 118°16'0 0.2
2015-Mar-29 19:33N 33°43' W 118°16'0 0.2
2015-Mar-29 18:33N 33°43' W 118°16'0 0.0
2015-Mar-29 17:33N 33°43' W 118°16'0 0.0
2015-Mar-29 16:33N 33°43' W 118°16'0 0.0
2015-Mar-29 15:33N 33°43' W 118°16'0 0.0
2015-Mar-29 14:33N 33°43' W 118°16'0 0.0
2015-Mar-29 13:33N 33°43' W 118°16'0 0.0
2015-Mar-29 12:33N 33°43' W 118°16'0 0.0
2015-Mar-29 11:20N 33°43' W 118°16'0 0.0
2015-Mar-29 10:33N 33°43' W 118°16'0 0.0
2015-Mar-29 09:33N 33°43' W 118°16'1 0.5
2015-Mar-29 08:34N 33°43' W 118°16'1 0.5
2015-Mar-29 07:34N 33°43' W 118°16'1 0.6
2015-Mar-29 06:34N 33°44' W 118°16'1 0.6
2015-Mar-29 05:33N 33°43' W 118°16'0 0.0
2015-Mar-29 04:33N 33°43' W 118°16'0 0.0
2015-Mar-29 03:33N 33°43' W 118°16'0 0.0
2015-Mar-29 02:33N 33°43' W 118°16'0 0.0
2015-Mar-29 01:33N 33°43' W 118°16'0 0.0
2015-Mar-29 00:33N 33°43' W 118°16'0 0.0
2015-Mar-28 23:33N 33°43' W 118°16'0 0.0
2015-Mar-28 22:33N 33°43' W 118°16'0 0.0
2015-Mar-28 21:33N 33°43' W 118°16'0 0.0
2015-Mar-28 20:33N 33°43' W 118°16'0 0.0
2015-Mar-28 19:33N 33°43' W 118°16'0 0.0
2015-Mar-28 18:33N 33°43' W 118°16'0 0.0
2015-Mar-28 17:32N 33°43' W 118°16'0 0.0
2015-Mar-28 16:32N 33°43' W 118°16'0 0.0
2015-Mar-28 15:33N 33°43' W 118°16'0 0.5
2015-Mar-28 14:33N 33°43' W 118°16'1 0.9
2015-Mar-28 13:33N 33°42' W 118°15'1 1.4
2015-Mar-28 12:33N 33°43' W 118°16'1 0.9
2015-Mar-28 11:33N 33°43' W 118°15'1 0.9
2015-Mar-28 10:33N 33°43' W 118°16'0 0.0
2015-Mar-28 09:33N 33°43' W 118°16'0 0.0
2015-Mar-28 08:33N 33°43' W 118°16'0 0.0
2015-Mar-28 07:33N 33°43' W 118°16'0 0.0
2015-Mar-28 06:33N 33°43' W 118°16'0 0.0
2015-Mar-28 05:34N 33°43' W 118°16'0 0.0
2015-Mar-28 04:34N 33°43' W 118°16'0 0.0
2015-Mar-28 03:34N 33°43' W 118°16'0 0.0
2015-Mar-28 02:33N 33°43' W 118°16'0 0.0
2015-Mar-28 01:33N 33°43' W 118°16'0 0.0
2015-Mar-28 00:33N 33°43' W 118°16'0 0.0
2015-Mar-27 23:33N 33°43' W 118°16'0 0.0
2015-Mar-27 22:33N 33°43' W 118°16'1 0.5
2015-Mar-27 21:33N 33°44' W 118°17'1 0.5
2015-Mar-27 20:33N 33°43' W 118°16'0 0.0
2015-Mar-27 19:33N 33°43' W 118°16'0 0.0
2015-Mar-27 18:33N 33°43' W 118°16'0 0.0
2015-Mar-27 17:33N 33°43' W 118°16'0 0.0
2015-Mar-27 16:33N 33°43' W 118°16'0 0.0
2015-Mar-27 15:33N 33°43' W 118°16'0 0.0
2015-Mar-27 14:33N 33°43' W 118°16'3 2.8
2015-Mar-27 13:27N 33°41' W 118°14'3 3.5
2015-Mar-27 12:34N 33°43' W 118°16'0 0.0
2015-Mar-27 11:33N 33°43' W 118°16'0 0.0
2015-Mar-27 10:33N 33°43' W 118°16'0 0.0
2015-Mar-27 09:33N 33°43' W 118°16'0 0.0
2015-Mar-27 08:33N 33°43' W 118°16'0 0.0
2015-Mar-27 07:33N 33°43' W 118°16'0 0.0
2015-Mar-27 06:12N 33°43' W 118°16'1 1.6
2015-Mar-27 05:33N 33°43' W 118°15'1 1.0
2015-Mar-27 04:33N 33°43' W 118°16'0 0.0
2015-Mar-27 03:33N 33°43' W 118°16'0 0.0
2015-Mar-27 02:33N 33°43' W 118°16'0 0.1
2015-Mar-27 01:33N 33°43' W 118°16'0 0.1
2015-Mar-27 00:33N 33°43' W 118°16'0 0.0
2015-Mar-26 23:33N 33°43' W 118°16'0 0.0
2015-Mar-26 21:30N 33°43' W 118°16'0 0.0
2015-Mar-26 20:33N 33°43' W 118°16'0 0.0
2015-Mar-26 19:33N 33°43' W 118°16'0 0.0
2015-Mar-26 18:34N 33°43' W 118°16'0 0.0
2015-Mar-26 17:34N 33°43' W 118°16'0 0.0
2015-Mar-26 16:34N 33°43' W 118°16'1 1.1
2015-Mar-26 15:33N 33°43' W 118°15'1 1.1
2015-Mar-26 14:33N 33°43' W 118°16'0 0.2
2015-Mar-26 13:33N 33°43' W 118°16'0 0.2
2015-Mar-26 12:33N 33°43' W 118°16'0 0.0
2015-Mar-26 11:33N 33°43' W 118°16'0 0.0
2015-Mar-26 10:33N 33°43' W 118°16'0 0.0
2015-Mar-26 09:33N 33°43' W 118°16'0 0.0
2015-Mar-26 08:33N 33°43' W 118°16'0 0.0
2015-Mar-26 07:33N 33°43' W 118°16'0 0.0
2015-Mar-26 06:33N 33°43' W 118°16'0 0.0
2015-Mar-26 05:33N 33°43' W 118°16'0 0.0
2015-Mar-26 04:33N 33°43' W 118°16'0 0.0
2015-Mar-26 03:27N 33°43' W 118°16'0 0.0
2015-Mar-26 02:33N 33°43' W 118°16'0 0.0
2015-Mar-26 01:33N 33°43' W 118°16'0 0.0
2015-Mar-26 00:32N 33°43' W 118°16'0 0.0
2015-Mar-25 23:33N 33°43' W 118°16'0 0.0
2015-Mar-25 22:33N 33°43' W 118°16'0 0.0
2015-Mar-25 21:33N 33°43' W 118°16'0 0.0
2015-Mar-25 20:33N 33°43' W 118°16'0 0.0
2015-Mar-25 19:33N 33°43' W 118°16'0 0.0
2015-Mar-25 18:25N 33°43' W 118°16'0 0.0
2015-Mar-25 17:33N 33°43' W 118°16'0 0.0
2015-Mar-25 16:33N 33°43' W 118°16'0 0.0
2015-Mar-25 15:33N 33°43' W 118°16'0 0.0
2015-Mar-25 14:33N 33°43' W 118°16'0 0.0
2015-Mar-25 13:33N 33°43' W 118°16'0 0.0
2015-Mar-25 12:33N 33°43' W 118°16'0 0.0
2015-Mar-25 11:33N 33°43' W 118°16'0 0.0
2015-Mar-25 10:33N 33°43' W 118°16'0 0.0
2015-Mar-25 09:33N 33°43' W 118°16'0 0.0
2015-Mar-25 08:33N 33°43' W 118°16'0 0.0
2015-Mar-25 07:33N 33°43' W 118°16'0 0.0
2015-Mar-25 06:33N 33°43' W 118°16'0 0.0
2015-Mar-25 05:33N 33°43' W 118°16'0 0.0
2015-Mar-25 04:33N 33°43' W 118°16'0 0.0
2015-Mar-25 03:33N 33°43' W 118°16'0 0.0
2015-Mar-25 02:33N 33°43' W 118°16'0 0.0
2015-Mar-25 01:33N 33°43' W 118°16'0 0.0
2015-Mar-25 00:32N 33°43' W 118°16'0 0.0
2015-Mar-24 23:32N 33°43' W 118°16'0 0.0
2015-Mar-24 21:22N 33°43' W 118°16'0 0.0
2015-Mar-24 05:10N 33°43' W 118°16'0 0.0
2015-Mar-24 04:32N 33°43' W 118°16'0 0.0
2015-Mar-24 03:33N 33°43' W 118°16'0 0.0
2015-Mar-24 02:33N 33°43' W 118°16'0 0.0
2015-Mar-24 01:32N 33°43' W 118°16'0 0.0
2015-Mar-24 00:19N 33°43' W 118°16'0 0.0
2015-Mar-23 00:27N 33°43' W 118°16'0 0.0
2015-Mar-22 23:33N 33°43' W 118°16'0 0.0
2015-Mar-22 22:33N 33°43' W 118°16'0 0.0
2015-Mar-22 21:19N 33°43' W 118°16'0 0.0
2015-Mar-22 19:19N 33°43' W 118°16'0 0.0
2015-Mar-22 11:05N 33°43' W 118°16'  

Dump ship's entire track history